createdAt,value
2023-05-02T00:00:31.354Z,23.89
2023-05-02T00:01:31.371Z,23.89
2023-05-02T00:02:31.412Z,23.88
2023-05-02T00:03:31.493Z,23.89
2023-05-02T00:04:31.440Z,23.88
2023-05-02T00:05:31.435Z,23.89
2023-05-02T00:06:31.510Z,23.89
2023-05-02T00:07:31.491Z,23.89
2023-05-02T00:08:31.544Z,23.89
2023-05-02T00:09:31.598Z,23.88
2023-05-02T00:10:31.627Z,23.88
2023-05-02T00:11:31.660Z,23.89
2023-05-02T00:12:31.758Z,23.88
2023-05-02T00:13:31.790Z,23.88
2023-05-02T00:14:31.827Z,23.88
2023-05-02T00:15:31.902Z,23.88
2023-05-02T00:16:31.969Z,23.88
2023-05-02T00:17:32.131Z,23.88
2023-05-02T00:18:32.059Z,23.88
2023-05-02T00:19:32.117Z,23.88
2023-05-02T00:20:32.179Z,23.88
2023-05-02T00:21:32.209Z,23.88
2023-05-02T00:22:32.322Z,23.88
2023-05-02T00:23:32.335Z,23.88
2023-05-02T00:24:32.445Z,23.88
2023-05-02T00:25:32.456Z,23.87
2023-05-02T00:26:32.522Z,23.87
2023-05-02T00:27:32.564Z,23.88
2023-05-02T00:28:32.644Z,23.88
2023-05-02T00:29:32.728Z,23.88
2023-05-02T00:30:32.769Z,23.88
2023-05-02T00:31:32.898Z,23.88
2023-05-02T00:32:32.896Z,23.87
2023-05-02T00:33:32.912Z,23.87
2023-05-02T00:34:32.983Z,23.87
2023-05-02T00:35:33.059Z,23.87
2023-05-02T00:36:33.099Z,23.88
2023-05-02T00:37:33.130Z,23.87
2023-05-02T00:38:33.202Z,23.87
2023-05-02T00:39:33.301Z,23.87
2023-05-02T00:40:33.325Z,23.87
2023-05-02T00:41:33.427Z,23.87
2023-05-02T00:42:33.463Z,23.87
2023-05-02T00:43:33.511Z,23.87
2023-05-02T00:44:33.595Z,23.87
2023-05-02T00:45:33.642Z,23.87
2023-05-02T00:46:33.749Z,23.87
2023-05-02T00:47:33.933Z,23.87
2023-05-02T00:48:33.798Z,23.87
2023-05-02T00:49:33.850Z,23.87
2023-05-02T00:50:33.880Z,23.86
2023-05-02T00:51:33.921Z,23.86
2023-05-02T00:52:33.993Z,23.86
2023-05-02T00:53:34.039Z,23.85
2023-05-02T00:54:34.140Z,23.86
2023-05-02T00:55:34.154Z,23.87
2023-05-02T00:56:34.223Z,23.87
2023-05-02T00:57:34.295Z,23.86
2023-05-02T00:58:34.323Z,23.86
2023-05-02T00:59:34.399Z,23.85
2023-05-02T01:00:34.483Z,23.86
2023-05-02T01:01:34.570Z,23.86
2023-05-02T01:02:34.715Z,23.86
2023-05-02T01:03:34.842Z,23.85
2023-05-02T01:04:34.700Z,23.86
2023-05-02T01:05:34.741Z,23.86
2023-05-02T01:06:34.839Z,23.86
2023-05-02T01:07:34.859Z,23.86
2023-05-02T01:08:34.894Z,23.87
2023-05-02T01:09:34.956Z,23.87
2023-05-02T01:10:35.045Z,23.87
2023-05-02T01:11:35.107Z,23.86
2023-05-02T01:12:35.151Z,23.86
2023-05-02T01:13:35.239Z,23.86
2023-05-02T01:14:35.283Z,23.86
2023-05-02T01:15:35.314Z,23.86
2023-05-02T01:16:35.543Z,23.86
2023-05-02T01:17:35.480Z,23.86
2023-05-02T01:18:35.504Z,23.86
2023-05-02T01:19:35.543Z,23.86
2023-05-02T01:20:35.620Z,23.85
2023-05-02T01:21:35.660Z,23.85
2023-05-02T01:22:35.749Z,23.86
2023-05-02T01:23:35.782Z,23.85
2023-05-02T01:24:35.872Z,23.85
2023-05-02T01:25:35.939Z,23.85
2023-05-02T01:26:35.980Z,23.86
2023-05-02T01:27:36.046Z,23.85
2023-05-02T01:28:36.110Z,23.85
2023-05-02T01:29:36.183Z,23.85
2023-05-02T01:30:36.251Z,23.85
2023-05-02T01:31:36.353Z,23.85
2023-05-02T01:32:36.403Z,23.86
2023-05-02T01:33:36.441Z,23.85
2023-05-02T01:34:36.500Z,23.84
2023-05-02T01:35:36.562Z,23.84
2023-05-02T01:36:36.617Z,23.84
2023-05-02T01:37:36.692Z,23.84
2023-05-02T01:38:36.715Z,23.84
2023-05-02T01:39:36.796Z,23.85
2023-05-02T01:40:36.874Z,23.85
2023-05-02T01:41:36.955Z,23.83
2023-05-02T01:42:37.088Z,23.84
2023-05-02T01:43:37.064Z,23.84
2023-05-02T01:44:37.142Z,23.84
2023-05-02T01:45:37.163Z,23.84
2023-05-02T01:46:37.280Z,23.84
2023-05-02T01:47:37.334Z,23.84
2023-05-02T01:48:37.363Z,23.84
2023-05-02T01:49:37.453Z,23.84
2023-05-02T01:50:37.521Z,23.84
2023-05-02T01:51:37.545Z,23.84
2023-05-02T01:52:37.613Z,23.84
2023-05-02T01:53:37.697Z,23.84
2023-05-02T01:54:37.768Z,23.84
2023-05-02T01:55:37.792Z,23.84
2023-05-02T01:56:37.901Z,23.83
2023-05-02T01:57:37.920Z,23.83
2023-05-02T01:58:37.980Z,23.83
2023-05-02T01:59:38.075Z,23.83
2023-05-02T02:00:38.959Z,23.84
2023-05-02T02:01:38.248Z,23.83
2023-05-02T02:02:38.255Z,23.83
2023-05-02T02:03:38.325Z,23.83
2023-05-02T02:04:38.363Z,23.83
2023-05-02T02:05:38.413Z,23.83
2023-05-02T02:06:38.541Z,23.83
2023-05-02T02:07:38.544Z,23.83
2023-05-02T02:08:38.609Z,23.83
2023-05-02T02:09:38.663Z,23.82
2023-05-02T02:10:38.748Z,23.83
2023-05-02T02:11:38.755Z,23.83
2023-05-02T02:12:38.807Z,23.82
2023-05-02T02:13:38.866Z,23.82
2023-05-02T02:14:38.960Z,23.82
2023-05-02T02:15:39.002Z,23.82
2023-05-02T02:16:39.096Z,23.82
2023-05-02T02:17:39.196Z,23.82
2023-05-02T02:18:39.171Z,23.82
2023-05-02T02:19:39.188Z,23.82
2023-05-02T02:20:39.271Z,23.82
2023-05-02T02:21:39.352Z,23.82
2023-05-02T02:22:39.401Z,23.82
2023-05-02T02:23:39.446Z,23.82
2023-05-02T02:24:39.547Z,23.81
2023-05-02T02:25:39.587Z,23.82
2023-05-02T02:26:39.627Z,23.81
2023-05-02T02:27:39.703Z,23.81
2023-05-02T02:28:39.742Z,23.81
2023-05-02T02:29:39.809Z,23.80
2023-05-02T02:30:39.898Z,23.80
2023-05-02T02:31:39.979Z,23.80
2023-05-02T02:32:40.083Z,23.80
2023-05-02T02:33:40.130Z,23.80
2023-05-02T02:34:40.128Z,23.80
2023-05-02T02:35:40.174Z,23.80
2023-05-02T02:36:40.257Z,23.79
2023-05-02T02:37:40.329Z,23.80
2023-05-02T02:38:40.382Z,23.79
2023-05-02T02:39:40.466Z,23.79
2023-05-02T02:40:40.531Z,23.80
2023-05-02T02:41:40.614Z,23.79
2023-05-02T02:42:40.659Z,23.79
2023-05-02T02:43:40.765Z,23.79
2023-05-02T02:44:40.830Z,23.79
2023-05-02T02:45:40.871Z,23.79
2023-05-02T02:46:41.060Z,23.79
2023-05-02T02:47:41.053Z,23.79
2023-05-02T02:48:41.062Z,23.80
2023-05-02T02:49:41.130Z,23.79
2023-05-02T02:50:41.203Z,23.79
2023-05-02T02:51:41.248Z,23.80
2023-05-02T02:52:41.286Z,23.79
2023-05-02T02:53:41.376Z,23.80
2023-05-02T02:54:41.453Z,23.79
2023-05-02T02:55:41.494Z,23.80
2023-05-02T02:56:41.564Z,23.79
2023-05-02T02:57:41.622Z,23.79
2023-05-02T02:58:41.682Z,23.79
2023-05-02T02:59:41.773Z,23.79
2023-05-02T03:00:41.791Z,23.79
2023-05-02T03:01:41.903Z,23.79
2023-05-02T03:02:41.968Z,23.78
2023-05-02T03:03:42.007Z,23.78
2023-05-02T03:04:42.105Z,23.78
2023-05-02T03:05:42.078Z,23.78
2023-05-02T03:06:42.171Z,23.78
2023-05-02T03:07:42.212Z,23.78
2023-05-02T03:08:42.247Z,23.78
2023-05-02T03:09:42.335Z,23.78
2023-05-02T03:10:42.386Z,23.77
2023-05-02T03:11:42.424Z,23.77
2023-05-02T03:12:42.479Z,23.78
2023-05-02T03:13:42.593Z,23.77
2023-05-02T03:14:42.634Z,23.77
2023-05-02T03:15:42.725Z,23.78
2023-05-02T03:16:42.829Z,23.78
2023-05-02T03:17:42.846Z,23.77
2023-05-02T03:18:42.843Z,23.78
2023-05-02T03:19:42.904Z,23.78
2023-05-02T03:20:42.983Z,23.78
2023-05-02T03:21:43.048Z,23.78
2023-05-02T03:22:43.127Z,23.78
2023-05-02T03:23:43.170Z,23.77
2023-05-02T03:24:43.267Z,23.76
2023-05-02T03:25:43.324Z,23.77
2023-05-02T03:26:43.376Z,23.76
2023-05-02T03:27:43.433Z,23.76
2023-05-02T03:28:43.459Z,23.76
2023-05-02T03:29:43.509Z,23.76
2023-05-02T03:30:43.562Z,23.75
2023-05-02T03:31:43.621Z,23.76
2023-05-02T03:32:43.772Z,23.75
2023-05-02T03:33:43.731Z,23.75
2023-05-02T03:34:43.778Z,23.75
2023-05-02T03:35:43.856Z,23.76
2023-05-02T03:36:43.877Z,23.76
2023-05-02T03:37:43.951Z,23.76
2023-05-02T03:38:43.990Z,23.76
2023-05-02T03:39:44.081Z,23.76
2023-05-02T03:40:44.113Z,23.76
2023-05-02T03:41:44.196Z,23.75
2023-05-02T03:42:44.249Z,23.75
2023-05-02T03:43:44.278Z,23.76
2023-05-02T03:44:44.341Z,23.75
2023-05-02T03:45:44.394Z,23.74
2023-05-02T03:46:44.522Z,23.74
2023-05-02T03:47:44.585Z,23.74
2023-05-02T03:48:44.556Z,23.74
2023-05-02T03:49:44.618Z,23.75
2023-05-02T03:50:44.666Z,23.76
2023-05-02T03:51:44.735Z,23.76
2023-05-02T03:52:44.818Z,23.78
2023-05-02T03:53:44.844Z,23.79
2023-05-02T03:54:44.920Z,23.80
2023-05-02T03:55:44.965Z,23.82
2023-05-02T03:56:45.031Z,23.83
2023-05-02T03:57:45.033Z,23.85
2023-05-02T03:58:45.066Z,23.86
2023-05-02T03:59:45.110Z,23.88
2023-05-02T04:00:45.191Z,23.91
2023-05-02T04:01:45.250Z,23.93
2023-05-02T04:02:45.285Z,23.94
2023-05-02T04:03:45.417Z,23.96
2023-05-02T04:04:45.380Z,23.97
2023-05-02T04:05:45.407Z,24.00
2023-05-02T04:06:45.588Z,24.01
2023-05-02T04:07:45.451Z,24.03
2023-05-02T04:08:45.525Z,24.05
2023-05-02T04:09:45.561Z,24.07
2023-05-02T04:10:45.575Z,24.09
2023-05-02T04:11:45.621Z,24.11
2023-05-02T04:12:45.628Z,24.13
2023-05-02T04:13:45.673Z,24.13
2023-05-02T04:14:45.729Z,24.16
2023-05-02T04:15:45.803Z,24.18
2023-05-02T04:16:45.866Z,24.19
2023-05-02T04:17:45.860Z,24.20
2023-05-02T04:18:45.892Z,24.21
2023-05-02T04:19:45.898Z,24.22
2023-05-02T04:20:45.966Z,24.24
2023-05-02T04:21:46.009Z,24.25
2023-05-02T04:22:46.057Z,24.27
2023-05-02T04:23:46.094Z,24.28
2023-05-02T04:24:46.126Z,24.29
2023-05-02T04:25:46.114Z,24.30
2023-05-02T04:26:46.190Z,24.31
2023-05-02T04:27:46.223Z,24.32
2023-05-02T04:28:46.263Z,24.33
2023-05-02T04:29:46.287Z,24.34
2023-05-02T04:30:46.345Z,24.35
2023-05-02T04:31:46.335Z,24.35
2023-05-02T04:32:46.408Z,24.36
2023-05-02T04:33:46.417Z,24.37
2023-05-02T04:34:46.446Z,24.36
2023-05-02T04:35:46.452Z,24.37
2023-05-02T04:36:46.503Z,24.38
2023-05-02T04:37:46.523Z,24.39
2023-05-02T04:38:46.549Z,24.39
2023-05-02T04:39:46.588Z,24.39
2023-05-02T04:40:46.630Z,24.40
2023-05-02T04:41:46.637Z,24.40
2023-05-02T04:42:46.685Z,24.40
2023-05-02T04:43:46.728Z,24.40
2023-05-02T04:44:46.737Z,24.40
2023-05-02T04:45:46.766Z,24.41
2023-05-02T04:46:46.870Z,24.41
2023-05-02T04:47:46.935Z,24.42
2023-05-02T04:48:46.857Z,24.42
2023-05-02T04:49:46.888Z,24.43
2023-05-02T04:50:46.943Z,24.44
2023-05-02T04:51:46.943Z,24.43
2023-05-02T04:52:47.001Z,24.43
2023-05-02T04:53:47.003Z,24.44
2023-05-02T04:54:47.138Z,24.43
2023-05-02T04:55:47.096Z,24.43
2023-05-02T04:56:47.131Z,24.43
2023-05-02T04:57:47.187Z,24.43
2023-05-02T04:58:47.209Z,24.43
2023-05-02T04:59:47.245Z,24.43
2023-05-02T05:02:06.204Z,24.39
2023-05-02T05:03:06.093Z,24.40
2023-05-02T05:04:06.172Z,24.41
2023-05-02T05:05:05.986Z,24.42
2023-05-02T05:06:05.982Z,24.42
2023-05-02T05:07:05.954Z,24.42
2023-05-02T05:08:05.838Z,24.43
2023-05-02T05:09:05.820Z,24.42
2023-05-02T05:10:05.877Z,24.42
2023-05-02T05:11:05.767Z,24.43
2023-05-02T05:12:05.734Z,24.42
2023-05-02T05:13:06.378Z,24.41
2023-05-02T05:14:05.681Z,24.41
2023-05-02T05:15:05.673Z,24.41
2023-05-02T05:16:06.326Z,24.41
2023-05-02T05:17:05.554Z,24.41
2023-05-02T05:18:05.549Z,24.41
2023-05-02T05:19:05.484Z,24.42
2023-05-02T05:20:06.333Z,24.41
2023-05-02T05:21:05.426Z,24.41
2023-05-02T05:22:05.440Z,24.41
2023-05-02T05:23:05.349Z,24.41
2023-05-02T05:24:05.313Z,24.42
2023-05-02T05:25:05.284Z,24.41
2023-05-02T05:26:05.262Z,24.43
2023-05-02T05:27:05.208Z,24.43
2023-05-02T05:28:05.161Z,24.41
2023-05-02T05:29:05.127Z,24.42
2023-05-02T05:30:05.131Z,24.41
2023-05-02T05:31:05.121Z,24.42
2023-05-02T05:32:05.076Z,24.42
2023-05-02T05:33:05.091Z,24.41
2023-05-02T05:34:05.354Z,24.37
2023-05-02T05:35:04.958Z,24.34
2023-05-02T05:36:04.941Z,24.32
2023-05-02T05:37:05.001Z,24.30
2023-05-02T05:38:04.944Z,24.29
2023-05-02T05:39:05.320Z,24.25
2023-05-02T05:40:04.958Z,24.25
2023-05-02T05:41:04.811Z,24.26
2023-05-02T05:42:04.738Z,24.25
2023-05-02T05:43:04.774Z,24.25
2023-05-02T05:44:04.708Z,24.26
2023-05-02T05:45:04.740Z,24.24
2023-05-02T05:46:11.750Z,24.12
2023-05-02T05:47:04.766Z,24.01
2023-05-02T05:48:04.760Z,24.00
2023-05-02T05:49:04.697Z,24.00
2023-05-02T05:50:04.650Z,24.01
2023-05-02T05:51:04.673Z,24.03
2023-05-02T05:52:05.583Z,24.07
2023-05-02T05:53:04.568Z,24.10
2023-05-02T05:54:04.842Z,24.16
2023-05-02T05:55:04.534Z,24.19
2023-05-02T05:56:04.491Z,24.26
2023-05-02T05:57:04.466Z,24.30
2023-05-02T05:58:04.463Z,24.37
2023-05-02T05:59:04.364Z,24.42
2023-05-02T06:00:04.520Z,24.46
2023-05-02T06:01:04.367Z,24.52
2023-05-02T06:02:04.388Z,24.58
2023-05-02T06:03:05.082Z,24.61
2023-05-02T06:04:04.297Z,24.65
2023-05-02T06:05:04.321Z,24.68
2023-05-02T06:06:04.246Z,24.71
2023-05-02T06:07:04.160Z,24.74
2023-05-02T06:08:04.176Z,24.75
2023-05-02T06:09:04.163Z,24.77
2023-05-02T06:10:04.163Z,24.79
2023-05-02T06:11:04.263Z,24.81
2023-05-02T06:12:04.153Z,24.82
2023-05-02T06:13:04.112Z,24.83
2023-05-02T06:14:04.133Z,24.83
2023-05-02T06:15:04.342Z,24.85
2023-05-02T06:16:04.063Z,24.85
2023-05-02T06:17:04.055Z,24.85
2023-05-02T06:18:04.098Z,24.86
2023-05-02T06:19:04.038Z,24.87
2023-05-02T06:20:04.393Z,24.87
2023-05-02T06:21:04.012Z,24.88
2023-05-02T06:22:04.807Z,24.88
2023-05-02T06:23:04.035Z,24.89
2023-05-02T06:24:04.009Z,24.89
2023-05-02T06:25:03.967Z,24.90
2023-05-02T06:26:04.042Z,24.90
2023-05-02T06:27:03.964Z,24.91
2023-05-02T06:28:03.915Z,24.92
2023-05-02T06:29:03.878Z,24.92
2023-05-02T06:30:04.405Z,24.92
2023-05-02T06:31:04.008Z,24.94
2023-05-02T06:32:03.900Z,24.94
2023-05-02T06:33:03.944Z,24.96
2023-05-02T06:34:03.854Z,24.96
2023-05-02T06:35:03.797Z,24.97
2023-05-02T06:36:03.783Z,24.93
2023-05-02T06:37:03.790Z,24.77
2023-05-02T06:38:03.783Z,24.47
2023-05-02T06:39:03.747Z,24.20
2023-05-02T06:40:04.228Z,23.83
2023-05-02T06:41:03.821Z,23.61
2023-05-02T06:42:03.846Z,23.64
2023-05-02T06:43:03.862Z,23.69
2023-05-02T06:44:03.861Z,23.67
2023-05-02T06:45:03.846Z,23.53
2023-05-02T06:46:04.074Z,23.48
2023-05-02T06:47:03.923Z,23.54
2023-05-02T06:48:03.909Z,23.62
2023-05-02T06:49:03.890Z,23.70
2023-05-02T06:50:03.995Z,23.79
2023-05-02T06:51:03.987Z,23.89
2023-05-02T06:52:03.884Z,24.00
2023-05-02T06:53:03.965Z,24.08
2023-05-02T06:54:03.973Z,24.18
2023-05-02T06:55:04.416Z,24.27
2023-05-02T06:56:04.055Z,24.35
2023-05-02T06:57:03.976Z,24.43
2023-05-02T06:58:03.978Z,24.49
2023-05-02T06:59:04.003Z,24.55
2023-05-02T07:00:04.274Z,24.59
2023-05-02T07:01:04.063Z,24.63
2023-05-02T07:02:05.275Z,24.67
2023-05-02T07:03:03.983Z,24.70
2023-05-02T07:04:04.038Z,24.73
2023-05-02T07:05:03.967Z,24.77
2023-05-02T07:06:03.983Z,24.79
2023-05-02T07:07:03.925Z,24.81
2023-05-02T07:08:03.975Z,24.84
2023-05-02T07:09:03.879Z,24.85
2023-05-02T07:10:04.355Z,24.87
2023-05-02T07:11:03.860Z,24.88
2023-05-02T07:12:06.616Z,24.90
2023-05-02T07:13:03.825Z,24.90
2023-05-02T07:14:03.790Z,24.91
2023-05-02T07:15:03.721Z,24.93
2023-05-02T07:16:03.799Z,24.95
2023-05-02T07:17:03.742Z,24.95
2023-05-02T07:18:03.722Z,24.96
2023-05-02T07:19:03.611Z,24.97
2023-05-02T07:20:04.264Z,24.98
2023-05-02T07:21:03.523Z,24.91
2023-05-02T07:22:03.520Z,24.88
2023-05-02T07:23:03.466Z,24.90
2023-05-02T07:24:03.430Z,24.92
2023-05-02T07:25:03.909Z,24.93
2023-05-02T07:26:06.123Z,24.96
2023-05-02T07:27:03.366Z,24.98
2023-05-02T07:28:03.321Z,24.99
2023-05-02T07:29:03.282Z,25.00
2023-05-02T07:30:03.730Z,25.01
2023-05-02T07:31:03.234Z,24.95
2023-05-02T07:32:03.276Z,24.74
2023-05-02T07:33:03.169Z,24.56
2023-05-02T07:34:03.175Z,24.34
2023-05-02T07:35:03.403Z,24.09
2023-05-02T07:36:03.139Z,23.79
2023-05-02T07:37:03.065Z,23.42
2023-05-02T07:38:03.061Z,23.12
2023-05-02T07:39:02.988Z,22.98
2023-05-02T07:40:03.217Z,22.87
2023-05-02T07:41:03.350Z,22.75
2023-05-02T07:42:03.004Z,22.72
2023-05-02T07:43:02.963Z,22.83
2023-05-02T07:44:02.920Z,22.96
2023-05-02T07:45:02.926Z,23.11
2023-05-02T07:46:02.967Z,23.25
2023-05-02T07:47:02.885Z,23.41
2023-05-02T07:48:02.926Z,23.56
2023-05-02T07:49:02.824Z,23.69
2023-05-02T07:50:03.011Z,23.83
2023-05-02T07:51:02.928Z,23.94
2023-05-02T07:52:02.737Z,24.05
2023-05-02T07:53:02.729Z,24.17
2023-05-02T07:54:02.672Z,24.26
2023-05-02T07:55:02.674Z,24.34
2023-05-02T07:56:02.636Z,24.41
2023-05-02T07:57:02.587Z,24.48
2023-05-02T07:58:02.645Z,24.53
2023-05-02T07:59:03.692Z,24.59
2023-05-02T08:00:03.040Z,24.63
2023-05-02T08:01:02.464Z,24.67
2023-05-02T08:02:02.416Z,24.70
2023-05-02T08:03:02.654Z,24.72
2023-05-02T08:04:02.623Z,24.76
2023-05-02T08:05:02.501Z,24.79
2023-05-02T08:06:02.456Z,24.82
2023-05-02T08:07:02.247Z,24.83
2023-05-02T08:08:02.229Z,24.86
2023-05-02T08:09:02.229Z,24.88
2023-05-02T08:10:02.619Z,24.89
2023-05-02T08:11:02.124Z,24.91
2023-05-02T08:12:02.069Z,24.93
2023-05-02T08:13:02.038Z,24.94
2023-05-02T08:14:02.048Z,24.96
2023-05-02T08:15:01.961Z,24.97
2023-05-02T08:16:01.956Z,24.98
2023-05-02T08:17:01.885Z,24.99
2023-05-02T08:18:01.972Z,25.00
2023-05-02T08:19:01.817Z,25.01
2023-05-02T08:20:02.141Z,25.02
2023-05-02T08:21:01.743Z,25.03
2023-05-02T08:22:02.244Z,25.04
2023-05-02T08:23:01.650Z,25.04
2023-05-02T08:24:01.624Z,25.06
2023-05-02T08:25:01.619Z,25.05
2023-05-02T08:26:01.573Z,25.06
2023-05-02T08:27:01.490Z,25.07
2023-05-02T08:28:01.479Z,25.07
2023-05-02T08:29:01.469Z,25.08
2023-05-02T08:30:01.608Z,25.08
2023-05-02T08:31:01.439Z,25.09
2023-05-02T08:32:01.331Z,24.98
2023-05-02T08:33:01.283Z,24.69
2023-05-02T08:34:01.232Z,24.26
2023-05-02T08:35:01.288Z,23.64
2023-05-02T08:36:01.219Z,23.09
2023-05-02T08:37:01.149Z,22.79
2023-05-02T08:38:01.125Z,22.53
2023-05-02T08:39:01.135Z,22.32
2023-05-02T08:40:01.432Z,22.41
2023-05-02T08:41:01.420Z,22.50
2023-05-02T08:42:01.078Z,22.62
2023-05-02T08:43:01.054Z,22.64
2023-05-02T08:44:01.042Z,22.47
2023-05-02T08:45:01.027Z,22.34
2023-05-02T08:46:01.049Z,22.44
2023-05-02T08:47:01.007Z,22.60
2023-05-02T08:48:00.950Z,22.78
2023-05-02T08:49:00.960Z,22.96
2023-05-02T08:50:01.168Z,23.11
2023-05-02T08:51:01.410Z,23.28
2023-05-02T08:52:00.906Z,23.32
2023-05-02T08:53:00.930Z,23.11
2023-05-02T08:54:00.954Z,22.94
2023-05-02T08:55:01.111Z,22.88
2023-05-02T08:56:01.411Z,22.75
2023-05-02T08:57:00.957Z,22.60
2023-05-02T08:58:00.966Z,22.51
2023-05-02T08:59:00.960Z,22.40
2023-05-02T09:00:01.000Z,22.27
2023-05-02T09:01:01.109Z,22.25
2023-05-02T09:02:01.073Z,22.24
2023-05-02T09:03:01.115Z,22.24
2023-05-02T09:04:01.107Z,22.18
2023-05-02T09:05:01.372Z,22.10
2023-05-02T09:06:01.469Z,22.13
2023-05-02T09:07:01.200Z,22.26
2023-05-02T09:08:01.205Z,22.39
2023-05-02T09:09:01.223Z,22.55
2023-05-02T09:10:01.238Z,22.71
2023-05-02T09:11:01.266Z,22.88
2023-05-02T09:12:01.255Z,23.04
2023-05-02T09:13:01.341Z,23.17
2023-05-02T09:14:01.508Z,23.32
2023-05-02T09:15:01.559Z,23.46
2023-05-02T09:16:01.395Z,23.57
2023-05-02T09:17:01.301Z,23.68
2023-05-02T09:18:01.345Z,23.79
2023-05-02T09:19:01.364Z,23.87
2023-05-02T09:20:01.308Z,23.95
2023-05-02T09:21:01.323Z,24.02
2023-05-02T09:22:01.428Z,24.09
2023-05-02T09:23:01.399Z,24.17
2023-05-02T09:24:01.389Z,24.25
2023-05-02T09:25:01.645Z,24.30
2023-05-02T09:26:01.385Z,24.37
2023-05-02T09:27:01.384Z,24.44
2023-05-02T09:28:01.426Z,24.51
2023-05-02T09:29:01.449Z,24.55
2023-05-02T09:30:01.461Z,24.58
2023-05-02T09:31:01.423Z,24.61
2023-05-02T09:32:01.503Z,24.66
2023-05-02T09:33:01.443Z,24.70
2023-05-02T09:34:01.400Z,24.74
2023-05-02T09:35:01.542Z,24.78
2023-05-02T09:36:01.382Z,24.82
2023-05-02T09:37:01.364Z,24.85
2023-05-02T09:38:01.443Z,24.88
2023-05-02T09:39:01.345Z,24.91
2023-05-02T09:40:01.327Z,24.93
2023-05-02T09:41:01.279Z,24.96
2023-05-02T09:42:01.264Z,24.98
2023-05-02T09:43:01.221Z,24.82
2023-05-02T09:44:01.219Z,24.51
2023-05-02T09:45:01.508Z,24.21
2023-05-02T09:46:01.276Z,23.97
2023-05-02T09:47:01.275Z,23.87
2023-05-02T09:48:01.368Z,23.85
2023-05-02T09:49:01.325Z,23.86
2023-05-02T09:50:01.351Z,23.89
2023-05-02T09:51:01.338Z,23.95
2023-05-02T09:52:01.377Z,23.99
2023-05-02T09:53:01.353Z,24.05
2023-05-02T09:54:01.397Z,24.10
2023-05-02T09:55:01.582Z,24.17
2023-05-02T09:56:01.409Z,24.23
2023-05-02T09:57:01.465Z,24.29
2023-05-02T09:58:01.462Z,24.34
2023-05-02T09:59:01.469Z,24.41
2023-05-02T10:00:01.478Z,24.48
2023-05-02T10:01:01.524Z,24.53
2023-05-02T10:02:01.493Z,24.60
2023-05-02T10:03:01.499Z,24.65
2023-05-02T10:04:01.521Z,24.69
2023-05-02T10:05:01.719Z,24.73
2023-05-02T10:06:01.507Z,24.77
2023-05-02T10:07:01.428Z,24.81
2023-05-02T10:08:01.477Z,24.84
2023-05-02T10:09:01.453Z,24.87
2023-05-02T10:10:01.412Z,24.89
2023-05-02T10:11:01.361Z,24.91
2023-05-02T10:12:01.360Z,24.93
2023-05-02T10:13:01.362Z,24.95
2023-05-02T10:14:01.330Z,24.98
2023-05-02T10:15:01.581Z,25.01
2023-05-02T10:16:01.310Z,25.02
2023-05-02T10:17:01.451Z,25.04
2023-05-02T10:18:01.347Z,25.05
2023-05-02T10:19:01.247Z,25.05
2023-05-02T10:20:01.233Z,25.06
2023-05-02T10:21:01.209Z,25.07
2023-05-02T10:22:01.475Z,25.08
2023-05-02T10:23:01.149Z,25.08
2023-05-02T10:24:01.206Z,25.09
2023-05-02T10:25:01.459Z,25.10
2023-05-02T10:26:01.127Z,25.11
2023-05-02T10:27:01.163Z,25.12
2023-05-02T10:28:01.128Z,25.12
2023-05-02T10:29:01.086Z,25.13
2023-05-02T10:30:01.122Z,25.14
2023-05-02T10:31:01.066Z,25.15
2023-05-02T10:32:01.546Z,25.16
2023-05-02T10:33:01.125Z,25.16
2023-05-02T10:34:01.062Z,25.17
2023-05-02T10:35:01.250Z,25.18
2023-05-02T10:36:01.060Z,25.19
2023-05-02T10:37:01.582Z,25.20
2023-05-02T10:38:01.075Z,25.20
2023-05-02T10:39:01.029Z,25.15
2023-05-02T10:40:01.051Z,24.96
2023-05-02T10:41:01.033Z,24.58
2023-05-02T10:42:01.454Z,24.33
2023-05-02T10:43:01.053Z,24.24
2023-05-02T10:44:01.091Z,24.18
2023-05-02T10:45:01.355Z,24.19
2023-05-02T10:46:01.181Z,24.22
2023-05-02T10:47:01.386Z,24.27
2023-05-02T10:48:01.213Z,24.29
2023-05-02T10:49:01.213Z,24.32
2023-05-02T10:50:01.197Z,24.33
2023-05-02T10:51:01.202Z,24.35
2023-05-02T10:52:01.487Z,24.36
2023-05-02T10:53:01.545Z,24.39
2023-05-02T10:54:01.212Z,24.39
2023-05-02T10:55:02.150Z,24.42
2023-05-02T10:56:01.221Z,24.42
2023-05-02T10:57:01.273Z,24.41
2023-05-02T10:58:01.226Z,24.43
2023-05-02T10:59:01.275Z,24.44
2023-05-02T11:00:01.278Z,24.45
2023-05-02T11:01:01.424Z,24.46
2023-05-02T11:02:01.525Z,24.45
2023-05-02T11:03:01.518Z,24.45
2023-05-02T11:04:01.343Z,24.46
2023-05-02T11:05:01.805Z,24.46
2023-05-02T11:06:01.402Z,24.48
2023-05-02T11:07:01.349Z,24.49
2023-05-02T11:08:01.346Z,24.51
2023-05-02T11:09:01.349Z,24.52
2023-05-02T11:10:01.356Z,24.51
2023-05-02T11:11:01.364Z,24.52
2023-05-02T11:12:01.325Z,24.52
2023-05-02T11:13:01.347Z,24.53
2023-05-02T11:14:01.398Z,24.53
2023-05-02T11:15:01.662Z,24.53
2023-05-02T11:16:01.380Z,24.53
2023-05-02T11:17:01.577Z,24.53
2023-05-02T11:18:01.436Z,24.52
2023-05-02T11:19:01.450Z,24.50
2023-05-02T11:20:01.355Z,24.50
2023-05-02T11:21:01.331Z,24.51
2023-05-02T11:22:01.354Z,24.50
2023-05-02T11:23:01.382Z,24.49
2023-05-02T11:24:01.347Z,24.49
2023-05-02T11:25:01.491Z,24.48
2023-05-02T11:26:01.335Z,24.49
2023-05-02T11:27:01.349Z,24.49
2023-05-02T11:28:01.360Z,24.49
2023-05-02T11:29:01.359Z,24.48
2023-05-02T11:30:01.356Z,24.43
2023-05-02T11:31:01.348Z,24.25
2023-05-02T11:32:01.518Z,24.06
2023-05-02T11:33:01.474Z,23.75
2023-05-02T11:34:01.415Z,23.42
2023-05-02T11:35:01.697Z,23.24
2023-05-02T11:36:01.485Z,23.22
2023-05-02T11:37:01.474Z,23.26
2023-05-02T11:38:01.382Z,23.34
2023-05-02T11:39:01.406Z,23.41
2023-05-02T11:40:01.398Z,23.48
2023-05-02T11:41:01.396Z,23.55
2023-05-02T11:42:01.426Z,23.62
2023-05-02T11:43:01.443Z,23.68
2023-05-02T11:44:01.389Z,23.74
2023-05-02T11:45:01.693Z,23.79
2023-05-02T11:46:01.455Z,23.85
2023-05-02T11:47:01.413Z,23.88
2023-05-02T11:48:01.403Z,23.86
2023-05-02T11:49:01.425Z,23.76
2023-05-02T11:50:01.560Z,23.68
2023-05-02T11:51:01.405Z,23.69
2023-05-02T11:52:01.407Z,23.72
2023-05-02T11:53:01.390Z,23.76
2023-05-02T11:54:01.402Z,23.80
2023-05-02T11:55:01.606Z,23.85
2023-05-02T11:56:01.379Z,23.88
2023-05-02T11:57:01.391Z,23.91
2023-05-02T11:58:01.365Z,23.94
2023-05-02T11:59:01.373Z,23.97
2023-05-02T12:00:01.398Z,24.00
2023-05-02T12:01:01.387Z,24.02
2023-05-02T12:02:01.450Z,24.05
2023-05-02T12:03:01.505Z,24.07
2023-05-02T12:04:01.487Z,24.08
2023-05-02T12:05:01.751Z,24.10
2023-05-02T12:06:01.536Z,24.12
2023-05-02T12:07:01.539Z,24.14
2023-05-02T12:08:01.508Z,24.16
2023-05-02T12:09:01.533Z,24.16
2023-05-02T12:10:01.579Z,24.17
2023-05-02T12:11:01.544Z,24.17
2023-05-02T12:12:01.578Z,24.17
2023-05-02T12:13:01.558Z,24.18
2023-05-02T12:14:01.606Z,24.19
2023-05-02T12:15:01.889Z,24.19
2023-05-02T12:16:01.727Z,24.18
2023-05-02T12:17:01.683Z,24.11
2023-05-02T12:18:01.687Z,23.93
2023-05-02T12:19:01.628Z,23.76
2023-05-02T12:20:01.620Z,23.57
2023-05-02T12:21:01.601Z,23.42
2023-05-02T12:22:01.619Z,23.24
2023-05-02T12:23:01.586Z,23.15
2023-05-02T12:24:01.629Z,23.20
2023-05-02T12:25:02.007Z,23.24
2023-05-02T12:26:01.602Z,23.28
2023-05-02T12:27:01.606Z,23.34
2023-05-02T12:28:01.614Z,23.39
2023-05-02T12:29:01.624Z,23.44
2023-05-02T12:30:01.883Z,23.49
2023-05-02T12:31:01.676Z,23.53
2023-05-02T12:32:01.714Z,23.57
2023-05-02T12:33:01.644Z,23.62
2023-05-02T12:34:01.840Z,23.65
2023-05-02T12:35:01.536Z,23.68
2023-05-02T12:36:01.523Z,23.71
2023-05-02T12:37:01.503Z,23.73
2023-05-02T12:38:01.502Z,23.76
2023-05-02T12:39:01.518Z,23.78
2023-05-02T12:40:01.728Z,23.79
2023-05-02T12:41:01.465Z,23.80
2023-05-02T12:42:01.480Z,23.83
2023-05-02T12:43:01.451Z,23.86
2023-05-02T12:44:01.477Z,23.86
2023-05-02T12:45:01.469Z,23.87
2023-05-02T12:46:01.431Z,23.89
2023-05-02T12:47:01.537Z,23.91
2023-05-02T12:48:01.488Z,23.90
2023-05-02T12:49:01.442Z,23.92
2023-05-02T12:50:01.808Z,23.94
2023-05-02T12:51:01.477Z,23.95
2023-05-02T12:52:01.487Z,23.95
2023-05-02T12:53:01.477Z,23.95
2023-05-02T12:54:01.494Z,23.97